默认 日期 大小 文件数 浏览量 最新下载 xml
how i磁力链接相关资源由用户搜索指令自动获取,结果来源于网络,本站不存储任何资料,亦不承担任何责任,请于24小时内删除,搜索到7202个磁力,显示前4000条数据,用时16ms。
    ... Ushi).cbz": 58427181, "No Matter How I Look at It, It's ... Ushi).cbz": 60532340, "No Matter How I Look at It, It's ... cbz": 50847044, "No Matter How I Look at It, It's ... cbz": 51559184, "No Matter How I Look at It, It's ... cbz": 51795513, "No Matter How I Look at It, It' ...
创建时间: 2022-10-27 07:36:37 大小:990.18 MB 文件数量:20 热度:8 最近下载:2025-09-20 05:21:03
    ... 264-MiU.mkv": 1701118845, "How.I.Caught.The.Killer.S02E01.Assassins ... -MiU.mkv": 1705900729, "How.I.Caught.The.Killer.S02E04.Body ... 264-MiU.mkv": 1712263550, "How.I.Caught.The.Killer.S02E09.Jealousy ... -MiU.mkv": 1707294923, "How.I.Caught.The.Killer.S02E08.Delayed ...
创建时间: 2022-10-27 21:32:17 大小:15.84 GB 文件数量:11 热度:6 最近下载:2025-06-10 04:22:01
    {"~Get Your Files Here !": {"Bonus Resources.txt": 357, "Loomered-LauraLoomer.epub": 5390800}, "Get Bonus Downloads Here.url": 180}
创建时间: 2022-10-27 23:06:01 大小:5.14 MB 文件数量:3 热度:5 最近下载:2025-01-21 10:56:06
    ... 264-MiU.mkv": 1668932534, "How.I.Caught.The.Killer.S01E05.Traces ... -MiU.mkv": 1674588557, "How.I.Caught.The.Killer.S01E08.Camden ... 264-MiU.mkv": 1668997016, "How.I.Caught.The.Killer.S01E02.Teenage ... 264-MiU.mkv": 1667875116, "How.I.Caught.The.Killer.S01E03.Bathtub ...
创建时间: 2022-10-28 06:42:10 大小:15.56 GB 文件数量:11 热度:4 最近下载:2025-04-12 11:48:01
    ... }, "How.I.Met.Your.Mother.S08.720p.HDTV.X264": {"How.I.Met. ... }, "How.I.Met.Your.Mother.S09.720p.HDTV.x264": {"How.I.Met. ... -REMARKABLE.mkv": 793243388}, "How.I.Met.Your.Mother.S09E15.PROPER ... x264-REMARKABLE.mkv": 719853693}, "How.I.Met.Your.Mother.S09E01E02.720p ...
创建时间: 2022-10-28 23:36:50 大小:129.9 GB 文件数量:215 热度:12 最近下载:2025-01-26 21:48:11
    ... ": 814428920, "8-15 P.S. I Love You (HD).m4v": 835431965 ... ": 842251690, "8-15 P.S. I Love You (1080p HD).m4v ...
创建时间: 2022-10-29 09:47:16 大小:40.84 GB 文件数量:48 热度:7 最近下载:2025-02-06 11:50:02
    {"how.i.met.your.mother.802.720p-dimension.nfo": 374, "How.I.Met.Your.Mother.S08E02.720p.HDTV.X264-DIMENSION.mkv": 963041579}
创建时间: 2022-10-30 06:47:02 大小:918.43 MB 文件数量:2 热度:4 最近下载:2025-04-07 12:13:04
    ... x264-GalaxyTV.mkv": 300521206, "How.I.Caught.The.Killer.S02E02.720p ... -GalaxyTV.mkv": 277513371, "How.I.Caught.The.Killer.S02E03.720p ... -GalaxyTV.mkv": 302478044, "How.I.Caught.The.Killer.S02E04.720p ... -GalaxyTV.mkv": 293587859, "How.I.Caught.The.Killer.S02E05.720p ...
创建时间: 2022-10-31 16:29:13 大小:2.8 GB 文件数量:11 热度:2 最近下载:2025-01-11 04:12:04
    ... 264.mkv": 717697797, "How.I.Met.Your.Mother.S07E02. ... 264.mkv": 713448959, "How.I.Met.Your.Mother.S07E03. ... 264.mkv": 704796827, "How.I.Met.Your.Mother.S07E04. ... 264.mkv": 698166778, "How.I.Met.Your.Mother.S07E05. ... 264.mkv": 717228957, "How.I.Met.Your.Mother.S07E06. ...
创建时间: 2022-11-03 07:11:28 大小:11.95 GB 文件数量:54 热度:4 最近下载:2025-10-17 17:44:01
    ... .DDP-Xiaomi.mkv": 1422258520, "How.I.Met.Your.Mother.S08E02.2012 ... .DDP-Xiaomi.mkv": 1421668134, "How.I.Met.Your.Mother.S08E03.2012 ... .DDP-Xiaomi.mkv": 1420648946, "How.I.Met.Your.Mother.S08E04.2012 ... .DDP-Xiaomi.mkv": 1417468652, "How.I.Met.Your.Mother.S08E05.2012 ...
创建时间: 2022-11-03 20:47:11 大小:31.15 GB 文件数量:26 热度:37 最近下载:2025-10-14 05:41:02
    ... .DDP-Xiaomi.mkv": 1452648128, "How.I.Met.Your.Mother.S01E02.2005 ... .DDP-Xiaomi.mkv": 1450525114, "How.I.Met.Your.Mother.S01E03.2005 ... .DDP-Xiaomi.mkv": 1401649569, "How.I.Met.Your.Mother.S01E04.2005 ... .DDP-Xiaomi.mkv": 1091050531, "How.I.Met.Your.Mother.S01E05.2005 ...
创建时间: 2022-11-04 06:05:56 大小:28.94 GB 文件数量:24 热度:61 最近下载:2025-10-11 03:58:02
    ... .DDP-Xiaomi.mkv": 1419424040, "How.I.Met.Your.Mother.S06E02.2010 ... .DDP-Xiaomi.mkv": 1419035283, "How.I.Met.Your.Mother.S06E03.2010 ... .DDP-Xiaomi.mkv": 1419820564, "How.I.Met.Your.Mother.S06E04.2010 ... .DDP-Xiaomi.mkv": 1417410957, "How.I.Met.Your.Mother.S06E05.2010 ...
创建时间: 2022-11-04 23:16:01 大小:31.24 GB 文件数量:26 热度:24 最近下载:2025-09-20 12:05:04
    {"2017.gif": 43185, "AA7X.COM.mp4": 18502443, "台湾色B.mht": 3062711, "[email protected]": 46, "久久热免费在线视频.txt": 210, "Blacked - Cadence Lux, Anya Olsen (How I Got a Million Followers).mp4": 596490736}
创建时间: 2022-11-05 05:24:19 大小:589.47 MB 文件数量:6 热度:13 最近下载:2025-08-08 02:49:02
    {"www.Speed.Cd.txt": 47, "www.Speed.Cd read me .txt": 47, "How.I.Met.Your.Mother.S08E07.The.Stamp.Tramp.720p.WEB-DL.x264-mSD.mkv": 369886199, "How.I.Met.Your.Mother.S08E07.The.Stamp.Tramp.720p.WEB-DL.x264-mSD.nfo": 1120}
创建时间: 2022-11-05 08:16:51 大小:352.75 MB 文件数量:4 热度:12 最近下载:2025-09-20 04:49:04
    ... Rus.Eng.HDCLUB.mkv": 795293453, "How.I.Met.Your.Mother.S08E02.720p ... .Eng.HDCLUB.mkv": 772556299, "How.I.Met.Your.Mother.S08E03.720p ... .Eng.HDCLUB.mkv": 793211773, "How.I.Met.Your.Mother.S08E04.720p ... .Eng.HDCLUB.mkv": 758155824, "How.I.Met.Your.Mother.S08E05.720p ...
创建时间: 2022-11-08 23:42:51 大小:14.48 GB 文件数量:20 热度:3 最近下载:2025-01-02 12:08:03
    ... -10.mkv": 220672946, "How.I.Met.Your.Mother S04.Dual ... 11.mkv": 221450270, "How.I.Met.Your.Mother S04.Dual ... 12.mkv": 221342187, "How.I.Met.Your.Mother S04.Dual ... 13.mkv": 221967616, "How.I.Met.Your.Mother S04.Dual ... 14.mkv": 220858525, "How.I.Met.Your.Mother S04.Dual ...
创建时间: 2022-11-09 07:25:06 大小:4.95 GB 文件数量:24 热度:3 最近下载:2025-02-06 11:48:05
    {"01.jpg": 275726, "02.jpg": 353261, "03.jpg": 299331, "04.jpg": 324144, "05.jpg": 237256, "06.jpg": 255692, "07.jpg": 313310, "08.jpg": 347760, "09.jpg": 327789, "10.jpg": 371640, "11.jpg": 401325, "12.jpg": 400281, "13.jpg": 443051, "14.jpg": 425787, "15 ...
创建时间: 2022-11-09 18:45:50 大小:23.33 MB 文件数量:64 热度:5 最近下载:2025-09-20 12:23:04
    {"01.jpg": 317114, "02.jpg": 385311, "03.jpg": 337773, "04.jpg": 306174, "05.jpg": 349222, "06.jpg": 310849, "07.jpg": 267012, "08.jpg": 321629, "09.jpg": 327652, "10.jpg": 349176, "11.jpg": 323710, "12.jpg": 349141, "13.jpg": 336442, "14.jpg": 334165, "15 ...
创建时间: 2022-11-09 21:46:09 大小:10.57 MB 文件数量:34 热度:9 最近下载:2025-08-01 09:09:04
    ... .AKTEP.mkv": 1918366852, "How.I.Met.Your.Mother.S01E16.Cupcake ... by.AKTEP.mkv": 2235902092, "How.I.Met.Your.Mother.S01E07.Matchmaker ... by.AKTEP.mkv": 2376593308, "How.I.Met.Your.Mother.S01E13.Drumroll ... .AKTEP.mkv": 2158712943, "How.I.Met.Your.Mother.S01E18.Nothing ...
创建时间: 2022-11-12 07:18:47 大小:47.36 GB 文件数量:22 热度:6 最近下载:2025-10-18 06:26:02
    {"Scene (1).mp4": 327207865, "Scene (2).mp4": 538449128, "Scene (3).mp4": 491070645, "Scene (4).mp4": 384314330, "Scene (5).mp4": 411198991}
创建时间: 2022-11-12 16:36:17 大小:2 GB 文件数量:5 热度:5 最近下载:2025-01-20 08:07:01